West Malling, United Kingdom
Current Conditions -  °F | °C
As of 11:20 AM on Saturday 25 Oct 2014 (Local Time) from EGKB Reporting Station
Broken Clouds Broken Clouds  
Wind Chill: 54°   Ceiling: 3700
Heat Index: 54°   Visibility: 6mi
Dew Point: 41°   Wind: 7mph
Humidity: 62%   Direction: 230°SW
Pressure: 30.09"   Gusts: NA
Location:  51.29°N, 0.41°E
Report Text: EGKB 251020Z 23006KT 200V270 9999 BKN037 12/05 Q1019
Loading
Personal Weather Stations






























Interactive Weather Map
Tropical Storm Tracking
New forecast layout! Learn more

10-Day Weather Forecast

Advertisements
Track Severe Weather on mobile